createdAt,value
2022-11-05T00:01:06.567Z,8.63
2022-11-05T00:03:53.264Z,8.63
2022-11-05T00:06:38.509Z,8.71
2022-11-05T00:09:27.039Z,8.69
2022-11-05T00:12:12.419Z,8.72
2022-11-05T00:14:57.673Z,8.77
2022-11-05T00:17:25.623Z,8.78
2022-11-05T00:19:54.974Z,8.81
2022-11-05T00:22:40.539Z,8.76
2022-11-05T00:25:16.599Z,8.82
2022-11-05T00:27:50.089Z,8.83
2022-11-05T00:30:21.030Z,8.84
2022-11-05T00:32:51.042Z,8.86
2022-11-05T00:35:23.241Z,8.85
2022-11-05T00:37:51.061Z,8.86
2022-11-05T00:40:18.930Z,8.87
2022-11-05T00:43:04.692Z,8.89
2022-11-05T00:45:32.792Z,8.88
2022-11-05T00:48:18.272Z,8.92
2022-11-05T00:50:47.613Z,8.94
2022-11-05T00:53:15.513Z,8.90
2022-11-05T00:55:45.963Z,8.85
2022-11-05T00:58:16.229Z,8.92
2022-11-05T01:00:49.327Z,8.89
2022-11-05T01:03:20.434Z,8.85
2022-11-05T01:05:52.453Z,8.80
2022-11-05T01:08:23.748Z,8.84
2022-11-05T01:10:55.560Z,8.82
2022-11-05T01:13:26.399Z,8.82
2022-11-05T01:15:55.142Z,8.75
2022-11-05T01:18:25.344Z,8.75
2022-11-05T01:20:54.544Z,8.78
2022-11-05T01:23:22.390Z,8.77
2022-11-05T01:25:50.166Z,8.69
2022-11-05T01:28:18.094Z,8.70
2022-11-05T01:30:45.922Z,8.69
2022-11-05T01:33:14.002Z,8.67
2022-11-05T01:35:42.130Z,8.66
2022-11-05T01:38:11.340Z,8.62
2022-11-05T01:40:44.235Z,8.59
2022-11-05T01:43:18.339Z,8.61
2022-11-05T01:45:52.134Z,8.59
2022-11-05T01:48:26.386Z,8.55
2022-11-05T01:51:00.233Z,8.58
2022-11-05T01:53:38.564Z,8.60
2022-11-05T01:56:12.777Z,8.54
2022-11-05T01:58:48.452Z,8.54
2022-11-05T02:01:17.049Z,8.51
2022-11-05T02:03:47.875Z,8.44
2022-11-05T02:06:18.899Z,8.48
2022-11-05T02:09:01.581Z,8.40
2022-11-05T02:11:30.036Z,8.37
2022-11-05T02:13:57.961Z,8.34
2022-11-05T02:16:42.218Z,8.34
2022-11-05T02:19:51.593Z,8.31
2022-11-05T02:23:03.087Z,8.25
2022-11-05T02:26:27.193Z,8.21
2022-11-05T02:29:36.820Z,8.21
2022-11-05T02:32:14.041Z,8.19
2022-11-05T02:34:55.632Z,8.11
2022-11-05T02:37:40.141Z,8.09
2022-11-05T02:40:19.193Z,8.06
2022-11-05T02:43:00.081Z,8.06
2022-11-05T02:45:46.020Z,8.00
2022-11-05T02:48:31.064Z,7.96
2022-11-05T02:51:09.788Z,7.94
2022-11-05T02:53:49.974Z,7.96
2022-11-05T02:56:24.520Z,7.91
2022-11-05T02:58:52.363Z,7.89
2022-11-05T03:01:20.156Z,7.87
2022-11-05T03:03:54.735Z,7.88
2022-11-05T03:06:53.504Z,7.87
2022-11-05T03:09:40.095Z,7.82
2022-11-05T03:12:29.338Z,7.76
2022-11-05T03:15:09.929Z,7.76
2022-11-05T03:17:46.169Z,7.80
2022-11-05T03:20:24.411Z,7.78
2022-11-05T03:23:06.344Z,7.72
2022-11-05T03:25:44.385Z,7.71
2022-11-05T03:28:15.954Z,7.74
2022-11-05T03:30:46.793Z,7.73
2022-11-05T03:33:21.766Z,7.69
2022-11-05T03:35:56.571Z,7.70
2022-11-05T03:38:30.447Z,7.70
2022-11-05T03:41:04.871Z,7.65
2022-11-05T03:43:39.191Z,7.62
2022-11-05T03:46:12.966Z,7.59
2022-11-05T03:48:48.384Z,7.55
2022-11-05T03:51:31.391Z,7.53
2022-11-05T03:54:03.736Z,7.58
2022-11-05T03:56:41.351Z,7.54
2022-11-05T03:59:12.281Z,7.56
2022-11-05T04:01:43.323Z,7.51
2022-11-05T04:04:11.421Z,7.51
2022-11-05T04:06:58.235Z,7.48
2022-11-05T04:09:43.631Z,7.39
2022-11-05T04:12:29.515Z,7.45
2022-11-05T04:14:57.498Z,7.40
2022-11-05T04:17:24.513Z,7.38
2022-11-05T04:20:09.952Z,7.32
2022-11-05T04:22:56.561Z,7.37
2022-11-05T04:25:24.513Z,7.30
2022-11-05T04:27:52.778Z,7.28
2022-11-05T04:30:20.433Z,7.30
2022-11-05T04:33:01.135Z,7.31
2022-11-05T04:35:31.679Z,7.29
2022-11-05T04:38:01.358Z,7.32
2022-11-05T04:40:29.657Z,7.26
2022-11-05T04:42:58.456Z,7.31
2022-11-05T04:45:28.502Z,7.25
2022-11-05T04:47:56.527Z,7.31
2022-11-05T04:50:24.838Z,7.25
2022-11-05T04:52:52.921Z,7.24
2022-11-05T04:55:22.464Z,7.23
2022-11-05T04:57:51.580Z,7.22
2022-11-05T05:00:21.134Z,7.23
2022-11-05T05:02:49.364Z,7.23
2022-11-05T05:05:17.312Z,7.18
2022-11-05T05:07:45.170Z,7.18
2022-11-05T05:10:13.960Z,7.18
2022-11-05T05:12:43.149Z,7.17
2022-11-05T05:15:11.014Z,7.08
2022-11-05T05:17:38.914Z,7.08
2022-11-05T05:20:25.577Z,7.06
2022-11-05T05:22:54.467Z,7.04
2022-11-05T05:25:23.191Z,6.98
2022-11-05T05:27:52.451Z,7.00
2022-11-05T05:30:23.702Z,6.94
2022-11-05T05:32:51.561Z,6.92
2022-11-05T05:35:19.327Z,6.92
2022-11-05T05:37:47.192Z,6.84
2022-11-05T05:40:14.991Z,6.84
2022-11-05T05:42:43.555Z,6.91
2022-11-05T05:45:13.386Z,6.90
2022-11-05T05:47:41.219Z,6.80
2022-11-05T05:50:09.388Z,6.79
2022-11-05T05:52:37.242Z,6.75
2022-11-05T05:55:06.005Z,6.71
2022-11-05T05:57:34.955Z,6.71
2022-11-05T06:00:02.849Z,6.74
2022-11-05T06:02:33.115Z,6.71
2022-11-05T06:05:00.970Z,6.71
2022-11-05T06:07:33.055Z,6.70
2022-11-05T06:10:03.994Z,6.71
2022-11-05T06:12:31.923Z,6.72
2022-11-05T06:14:59.722Z,6.74
2022-11-05T06:17:27.556Z,6.69
2022-11-05T06:19:56.836Z,6.69
2022-11-05T06:22:24.684Z,6.66
2022-11-05T06:24:52.533Z,6.67
2022-11-05T06:27:20.376Z,6.64
2022-11-05T06:29:48.256Z,6.71
2022-11-05T06:32:16.145Z,6.72
2022-11-05T06:34:45.155Z,6.64
2022-11-05T06:37:14.297Z,6.60
2022-11-05T06:39:42.055Z,6.67
2022-11-05T06:42:18.389Z,6.68
2022-11-05T06:44:46.726Z,6.64
2022-11-05T06:47:14.558Z,6.62
2022-11-05T06:49:42.416Z,6.62
2022-11-05T06:52:10.209Z,6.67
2022-11-05T06:54:39.398Z,6.68
2022-11-05T06:57:09.546Z,6.70
2022-11-05T06:59:37.712Z,6.74
2022-11-05T07:02:05.827Z,6.82
2022-11-05T07:04:33.899Z,6.82
2022-11-05T07:07:01.792Z,6.79
2022-11-05T07:09:30.361Z,6.82
2022-11-05T07:11:59.579Z,6.83
2022-11-05T07:14:27.409Z,6.90
2022-11-05T07:16:55.171Z,6.83
2022-11-05T07:19:22.973Z,6.87
2022-11-05T07:21:51.732Z,6.87
2022-11-05T07:24:19.566Z,6.77
2022-11-05T07:26:47.351Z,6.87
2022-11-05T07:29:16.559Z,6.88
2022-11-05T07:31:44.340Z,6.90
2022-11-05T07:34:12.262Z,6.85
2022-11-05T07:36:40.376Z,6.89
2022-11-05T07:39:08.199Z,6.87
2022-11-05T07:41:36.026Z,6.92
2022-11-05T07:44:04.375Z,6.99
2022-11-05T07:46:33.601Z,6.95
2022-11-05T07:49:01.430Z,7.01
2022-11-05T07:51:29.350Z,7.06
2022-11-05T07:53:57.182Z,7.06
2022-11-05T07:56:24.975Z,7.13
2022-11-05T07:58:52.707Z,7.08
2022-11-05T08:01:20.604Z,7.10
2022-11-05T08:03:49.941Z,7.16
2022-11-05T08:06:17.821Z,7.12
2022-11-05T08:08:45.653Z,7.10
2022-11-05T08:11:13.760Z,7.15
2022-11-05T08:13:42.767Z,7.25
2022-11-05T08:16:10.865Z,7.39
2022-11-05T08:18:39.421Z,7.42
2022-11-05T08:21:09.562Z,7.42
2022-11-05T08:23:38.705Z,7.52
2022-11-05T08:26:07.013Z,7.62
2022-11-05T08:28:34.856Z,7.69
2022-11-05T08:31:02.745Z,7.58
2022-11-05T08:33:31.384Z,7.69
2022-11-05T08:36:03.912Z,7.82
2022-11-05T08:38:33.323Z,7.85
2022-11-05T08:41:01.776Z,7.72
2022-11-05T08:43:29.640Z,7.83
2022-11-05T08:45:57.467Z,7.83
2022-11-05T08:48:25.322Z,7.87
2022-11-05T08:50:53.337Z,7.84
2022-11-05T08:53:21.411Z,7.91
2022-11-05T08:55:51.460Z,8.08
2022-11-05T08:58:20.675Z,8.24
2022-11-05T09:00:50.907Z,8.33
2022-11-05T09:03:19.227Z,8.43
2022-11-05T09:05:47.038Z,8.43
2022-11-05T09:08:17.653Z,8.26
2022-11-05T09:10:47.569Z,8.22
2022-11-05T09:13:19.851Z,8.28
2022-11-05T09:15:48.753Z,8.36
2022-11-05T09:18:18.594Z,8.48
2022-11-05T09:20:46.871Z,8.57
2022-11-05T09:23:15.839Z,8.57
2022-11-05T09:25:44.193Z,8.74
2022-11-05T09:28:17.333Z,8.78
2022-11-05T09:30:47.820Z,8.82
2022-11-05T09:33:17.859Z,8.70
2022-11-05T09:35:45.858Z,8.73
2022-11-05T09:38:13.949Z,8.96
2022-11-05T09:40:56.049Z,9.00
2022-11-05T09:43:32.078Z,9.07
2022-11-05T09:46:08.532Z,9.07
2022-11-05T09:48:39.059Z,9.05
2022-11-05T09:51:07.796Z,9.07
2022-11-05T09:53:41.975Z,9.09
2022-11-05T09:56:22.452Z,9.25
2022-11-05T09:58:58.342Z,9.47
2022-11-05T10:01:32.036Z,9.33
2022-11-05T10:04:07.310Z,9.38
2022-11-05T10:06:35.727Z,9.50
2022-11-05T10:09:09.952Z,9.53
2022-11-05T10:11:45.660Z,9.60
2022-11-05T10:14:23.910Z,9.64
2022-11-05T10:16:59.265Z,9.89
2022-11-05T10:19:37.261Z,9.91
2022-11-05T10:22:16.184Z,9.83
2022-11-05T10:24:47.158Z,9.91
2022-11-05T10:27:20.782Z,9.89
2022-11-05T10:29:51.423Z,9.92
2022-11-05T10:32:31.144Z,10.06
2022-11-05T10:35:02.635Z,10.00
2022-11-05T10:37:38.267Z,10.04
2022-11-05T10:40:20.719Z,10.18
2022-11-05T10:43:01.487Z,10.25
2022-11-05T10:45:44.821Z,10.29
2022-11-05T10:48:48.010Z,10.39
2022-11-05T10:51:17.408Z,10.43
2022-11-05T10:54:00.387Z,10.40
2022-11-05T10:56:33.426Z,10.50
2022-11-05T10:59:06.671Z,10.48
2022-11-05T11:01:38.995Z,10.49
2022-11-05T11:04:21.521Z,10.60
2022-11-05T11:06:52.718Z,10.61
2022-11-05T11:09:25.817Z,10.68
2022-11-05T11:12:03.697Z,10.82
2022-11-05T11:14:32.443Z,10.75
2022-11-05T11:17:29.354Z,10.72
2022-11-05T11:20:28.746Z,10.75
2022-11-05T11:23:11.476Z,10.85
2022-11-05T11:25:48.449Z,10.88
2022-11-05T11:28:30.156Z,11.04
2022-11-05T11:31:08.344Z,11.11
2022-11-05T11:33:40.206Z,11.16
2022-11-05T11:36:11.629Z,11.09
2022-11-05T11:38:41.304Z,11.04
2022-11-05T11:41:27.863Z,11.25
2022-11-05T11:44:00.668Z,11.31
2022-11-05T11:46:35.173Z,11.39
2022-11-05T11:49:07.120Z,11.43
2022-11-05T11:51:40.658Z,11.45
2022-11-05T11:54:23.907Z,11.37
2022-11-05T11:56:55.026Z,11.36
2022-11-05T11:59:53.881Z,11.48
2022-11-05T12:02:48.089Z,11.49
2022-11-05T12:05:33.666Z,11.45
2022-11-05T12:08:24.444Z,11.69
2022-11-05T12:11:04.093Z,11.50
2022-11-05T12:13:56.298Z,11.39
2022-11-05T12:16:57.472Z,11.18
2022-11-05T12:19:54.605Z,11.21
2022-11-05T12:22:41.491Z,11.05
2022-11-05T12:25:26.850Z,11.01
2022-11-05T12:28:19.936Z,10.81
2022-11-05T12:31:10.919Z,10.79
2022-11-05T12:33:56.488Z,10.81
2022-11-05T12:36:58.629Z,10.83
2022-11-05T12:39:58.856Z,10.98
2022-11-05T12:42:49.489Z,11.09
2022-11-05T12:45:32.062Z,11.18
2022-11-05T12:48:31.596Z,11.09
2022-11-05T12:51:25.405Z,11.02
2022-11-05T12:54:06.556Z,11.08
2022-11-05T12:56:44.236Z,11.20
2022-11-05T12:59:22.183Z,11.24
2022-11-05T13:01:57.447Z,11.21
2022-11-05T13:04:39.201Z,11.23
2022-11-05T13:07:14.655Z,11.33
2022-11-05T13:09:50.146Z,11.32
2022-11-05T13:12:25.965Z,11.33
2022-11-05T13:15:01.272Z,11.28
2022-11-05T13:17:38.577Z,11.21
2022-11-05T13:20:17.798Z,11.26
2022-11-05T13:22:49.579Z,11.24
2022-11-05T13:25:25.300Z,11.23
2022-11-05T13:28:05.998Z,11.33
2022-11-05T13:30:38.694Z,11.38
2022-11-05T13:33:16.574Z,11.39
2022-11-05T13:36:13.211Z,11.46
2022-11-05T13:38:59.204Z,11.59
2022-11-05T13:41:48.489Z,11.49
2022-11-05T13:44:45.038Z,11.73
2022-11-05T13:47:36.963Z,11.89
2022-11-05T13:50:56.415Z,12.00
2022-11-05T13:54:27.120Z,12.11
2022-11-05T13:57:18.875Z,12.17
2022-11-05T14:00:08.142Z,12.30
2022-11-05T14:02:43.124Z,12.20
2022-11-05T14:05:29.778Z,11.91
2022-11-05T14:08:01.229Z,11.82
2022-11-05T14:10:38.547Z,11.62
2022-11-05T14:13:22.009Z,11.49
2022-11-05T14:16:05.388Z,11.35
2022-11-05T14:18:41.395Z,11.30
2022-11-05T14:21:33.377Z,11.24
2022-11-05T14:24:25.621Z,11.24
2022-11-05T14:27:43.596Z,11.18
2022-11-05T14:30:41.759Z,11.05
2022-11-05T14:33:33.109Z,10.99
2022-11-05T14:36:35.736Z,10.94
2022-11-05T14:39:33.268Z,10.86
2022-11-05T14:42:11.567Z,10.80
2022-11-05T14:45:00.639Z,10.71
2022-11-05T14:47:33.318Z,10.75
2022-11-05T14:50:11.515Z,10.79
2022-11-05T14:52:42.081Z,10.73
2022-11-05T14:55:29.598Z,10.67
2022-11-05T14:58:34.168Z,10.62
2022-11-05T15:01:03.437Z,10.58
2022-11-05T15:04:11.836Z,10.53
2022-11-05T15:06:41.121Z,10.51
2022-11-05T15:09:20.353Z,10.43
2022-11-05T15:12:13.866Z,10.39
2022-11-05T15:15:02.922Z,10.30
2022-11-05T15:17:39.041Z,10.09
2022-11-05T15:20:15.105Z,10.02
2022-11-05T15:22:48.294Z,9.98
2022-11-05T15:25:22.190Z,9.87
2022-11-05T15:28:05.347Z,9.81
2022-11-05T15:30:33.475Z,9.68
2022-11-05T15:33:19.541Z,9.59
2022-11-05T15:35:47.603Z,9.48
2022-11-05T15:38:31.479Z,9.49
2022-11-05T15:41:02.253Z,9.57
2022-11-05T15:43:30.915Z,9.56
2022-11-05T15:46:04.772Z,9.47
2022-11-05T15:48:33.835Z,9.43
2022-11-05T15:51:02.319Z,9.40
2022-11-05T15:56:52.134Z,9.38
2022-11-05T15:59:23.146Z,9.42
2022-11-05T16:01:56.475Z,9.38
2022-11-05T16:04:28.709Z,9.27
2022-11-05T16:07:00.647Z,9.23
2022-11-05T16:09:33.814Z,9.16
2022-11-05T16:12:24.949Z,9.13
2022-11-05T16:15:03.911Z,9.08
2022-11-05T16:17:46.367Z,9.03
2022-11-05T16:20:25.906Z,9.00
2022-11-05T16:22:57.481Z,8.88
2022-11-05T16:25:39.980Z,8.83
2022-11-05T16:28:24.166Z,8.75
2022-11-05T16:30:57.623Z,8.78
2022-11-05T16:33:32.433Z,8.81
2022-11-05T16:36:00.476Z,8.87
2022-11-05T16:38:29.281Z,8.81
2022-11-05T16:41:00.304Z,8.82
2022-11-05T16:43:28.571Z,8.83
2022-11-05T16:45:59.901Z,8.79
2022-11-05T16:48:28.899Z,8.73
2022-11-05T16:50:56.820Z,8.74
2022-11-05T16:53:24.661Z,8.72
2022-11-05T16:55:52.454Z,8.67
2022-11-05T16:58:24.964Z,8.65
2022-11-05T17:01:02.679Z,8.61
2022-11-05T17:03:30.563Z,8.58
2022-11-05T17:05:58.331Z,8.52
2022-11-05T17:08:26.149Z,8.49
2022-11-05T17:10:54.014Z,8.39
2022-11-05T17:13:23.378Z,8.40
2022-11-05T17:15:52.773Z,8.43
2022-11-05T17:18:21.350Z,8.52
2022-11-05T17:20:52.724Z,8.41
2022-11-05T17:23:24.208Z,8.37
2022-11-05T17:26:00.100Z,8.33
2022-11-05T17:28:30.426Z,8.29
2022-11-05T17:31:00.471Z,8.36
2022-11-05T17:33:29.042Z,8.33
2022-11-05T17:35:57.929Z,8.29
2022-11-05T17:38:27.870Z,8.28
2022-11-05T17:40:55.777Z,8.39
2022-11-05T17:43:24.489Z,8.32
2022-11-05T17:45:55.164Z,8.27
2022-11-05T17:48:24.394Z,8.25
2022-11-05T17:50:52.350Z,8.18
2022-11-05T17:53:20.910Z,8.19
2022-11-05T17:55:49.226Z,8.26
2022-11-05T17:58:17.269Z,8.18
2022-11-05T18:00:46.608Z,8.19
2022-11-05T18:03:16.373Z,8.11
2022-11-05T18:05:44.352Z,8.11
2022-11-05T18:08:12.533Z,8.12
2022-11-05T18:10:41.562Z,8.09
2022-11-05T18:13:09.947Z,7.98
2022-11-05T18:15:41.029Z,7.96
2022-11-05T18:18:09.450Z,7.82
2022-11-05T18:20:38.752Z,7.83
2022-11-05T18:23:07.316Z,7.76
2022-11-05T18:25:35.262Z,7.93
2022-11-05T18:28:04.417Z,7.95
2022-11-05T18:31:24.853Z,7.93
2022-11-05T18:36:55.978Z,7.94
2022-11-05T18:42:44.850Z,7.82
2022-11-05T18:45:16.710Z,7.76
2022-11-05T18:47:45.613Z,7.76
2022-11-05T18:50:14.715Z,7.71
2022-11-05T18:52:50.054Z,7.66
2022-11-05T18:55:34.468Z,7.65
2022-11-05T18:58:31.153Z,7.61
2022-11-05T19:01:23.664Z,7.65
2022-11-05T19:05:28.015Z,7.71
2022-11-05T19:07:57.311Z,7.69
2022-11-05T19:10:25.366Z,7.64
2022-11-05T19:12:53.813Z,7.62
2022-11-05T19:15:21.609Z,7.63
2022-11-05T19:17:49.438Z,7.66
2022-11-05T19:20:17.320Z,7.51
2022-11-05T19:22:45.084Z,7.55
2022-11-05T19:25:14.323Z,7.58
2022-11-05T19:27:43.630Z,7.54
2022-11-05T19:30:12.578Z,7.52
2022-11-05T19:32:40.397Z,7.51
2022-11-05T19:35:09.047Z,7.51
2022-11-05T19:37:36.917Z,7.45
2022-11-05T19:40:05.544Z,7.42
2022-11-05T19:42:34.696Z,7.31
2022-11-05T19:45:23.159Z,7.26
2022-11-05T19:47:50.891Z,7.20
2022-11-05T19:50:18.955Z,7.10
2022-11-05T19:52:46.732Z,7.02
2022-11-05T19:55:14.565Z,6.96
2022-11-05T19:57:44.975Z,6.88
2022-11-05T20:00:14.804Z,6.80
2022-11-05T20:02:45.714Z,6.78
2022-11-05T20:05:14.995Z,6.79
2022-11-05T20:07:53.191Z,6.79
2022-11-05T20:14:38.041Z,6.63
2022-11-05T20:17:50.944Z,6.58
2022-11-05T20:24:06.714Z,6.48
2022-11-05T20:26:55.507Z,6.53
2022-11-05T20:29:52.393Z,6.54
2022-11-05T20:32:27.489Z,6.51
2022-11-05T20:38:38.002Z,6.35
2022-11-05T20:41:33.644Z,6.32
2022-11-05T20:44:02.106Z,6.33
2022-11-05T20:46:32.747Z,6.30
2022-11-05T20:52:06.893Z,6.29
2022-11-05T20:55:15.319Z,6.49
2022-11-05T20:57:47.536Z,6.32
2022-11-05T21:00:19.748Z,6.31
2022-11-05T21:09:26.246Z,6.19
2022-11-05T21:12:53.489Z,6.17
2022-11-05T21:15:23.166Z,6.18
2022-11-05T21:17:54.349Z,6.12
2022-11-05T21:20:23.603Z,6.09
2022-11-05T21:22:51.492Z,6.06
2022-11-05T21:25:19.416Z,6.01
2022-11-05T21:27:47.243Z,6.03
2022-11-05T21:30:15.493Z,5.99
2022-11-05T21:33:06.007Z,5.94
2022-11-05T21:35:39.315Z,5.90
2022-11-05T21:38:36.718Z,5.95
2022-11-05T21:41:07.093Z,5.91
2022-11-05T21:43:35.304Z,5.87
2022-11-05T21:46:06.049Z,5.88
2022-11-05T21:48:34.179Z,5.81
2022-11-05T21:51:20.941Z,5.76
2022-11-05T21:54:06.323Z,5.78
2022-11-05T21:56:52.273Z,5.77
2022-11-05T21:59:41.738Z,5.76
2022-11-05T22:02:13.431Z,5.72
2022-11-05T22:04:45.132Z,5.68
2022-11-05T22:07:18.514Z,5.65
2022-11-05T22:09:47.651Z,5.72
2022-11-05T22:12:16.301Z,5.73
2022-11-05T22:14:44.960Z,5.71
2022-11-05T22:17:14.295Z,5.68
2022-11-05T22:19:42.468Z,5.67
2022-11-05T22:22:10.413Z,5.66
2022-11-05T22:24:41.126Z,5.68
2022-11-05T22:27:13.685Z,5.73
2022-11-05T22:29:41.657Z,5.73
2022-11-05T22:32:10.946Z,5.77
2022-11-05T22:34:38.827Z,5.72
2022-11-05T22:37:07.150Z,5.73
2022-11-05T22:39:35.266Z,5.78
2022-11-05T22:42:08.439Z,5.82
2022-11-05T22:44:37.668Z,5.83
2022-11-05T22:47:06.504Z,5.92
2022-11-05T22:49:35.254Z,5.95
2022-11-05T22:52:03.427Z,6.00
2022-11-05T22:54:36.340Z,6.02
2022-11-05T22:57:08.616Z,6.07
2022-11-05T22:59:36.518Z,6.05
2022-11-05T23:02:09.431Z,6.08
2022-11-05T23:04:38.376Z,6.12
2022-11-05T23:07:27.582Z,6.15
2022-11-05T23:10:14.019Z,6.12
2022-11-05T23:12:44.575Z,6.11
2022-11-05T23:15:34.306Z,6.11
2022-11-05T23:18:20.473Z,6.07
2022-11-05T23:21:05.742Z,6.06
2022-11-05T23:24:02.604Z,6.12
2022-11-05T23:26:48.135Z,6.06
2022-11-05T23:29:17.409Z,6.11
2022-11-05T23:31:59.343Z,6.17
2022-11-05T23:34:27.455Z,6.19
2022-11-05T23:37:13.141Z,6.28
2022-11-05T23:39:42.864Z,6.27
2022-11-05T23:42:29.186Z,6.24
2022-11-05T23:45:16.476Z,6.22
2022-11-05T23:48:01.955Z,6.27
2022-11-05T23:50:35.624Z,6.27
2022-11-05T23:53:06.653Z,6.22
2022-11-05T23:55:34.502Z,6.17
2022-11-05T23:58:02.301Z,6.09
